Time;durP1;ratioP1;P1;durP2;ratioP2;P2;SDS_P1;SDS_P2;PMS_P1;PMS_P2;Temp;Humidity;BMP_temperature;BMP_pressure;BME280_temperature;BME280_humidity;BME280_pressure;Samples;Min_cycle;Max_cycle;Signal;HPM_P1;HPM_P2
2022/11/14 00:09:44;;;;;;;9.20;7.72;;;;;;;21.66;59.32;101464.69;21013854;28;20613;-77
2022/11/14 00:19:44;;;;;;;9.32;7.35;;;;;;;21.62;59.41;101468.47;21003486;28;20040;-76
2022/11/14 00:29:45;;;;;;;9.05;7.30;;;;;;;21.65;59.38;101454.25;21000612;28;20479;-76
2022/11/14 00:39:45;;;;;;;8.18;6.95;;;;;;;21.58;59.63;101457.28;21026128;28;20729;-76
2022/11/14 00:49:45;;;;;;;8.02;6.30;;;;;;;21.57;59.21;101466.13;21030861;28;20874;-76
2022/11/14 00:59:46;;;;;;;8.40;6.68;;;;;;;21.55;59.54;101456.59;21005447;28;20971;-76
2022/11/14 01:09:47;;;;;;;9.27;6.90;;;;;;;21.56;59.70;101447.75;21017381;28;20363;-76
2022/11/14 01:19:48;;;;;;;8.00;6.03;;;;;;;21.54;59.51;101442.56;21007483;28;20032;-76
2022/11/14 01:29:48;;;;;;;7.78;6.28;;;;;;;21.55;59.32;101441.63;20994941;28;20055;-76
2022/11/14 01:39:48;;;;;;;8.07;6.20;;;;;;;21.52;59.36;101428.66;21001200;28;20461;-75
2022/11/14 01:49:55;;;;;;;8.07;6.22;;;;;;;21.48;59.14;101442.09;20988971;28;20543;-76
2022/11/14 02:00:02;;;;;;;7.00;6.22;;;;;;;21.47;59.62;101422.81;20968839;28;20105;-76
2022/11/14 02:10:09;;;;;;;6.70;5.70;;;;;;;21.48;59.31;101416.59;20995613;28;20133;-75
2022/11/14 02:20:10;;;;;;;7.38;5.78;;;;;;;21.46;59.41;101420.25;20999328;28;21541;-75
2022/11/14 02:30:18;;;;;;;6.70;5.55;;;;;;;21.43;59.08;101413.41;20980482;28;20048;-76
2022/11/14 02:40:18;;;;;;;6.68;5.97;;;;;;;21.42;59.18;101417.84;21004162;28;20037;-76
2022/11/14 02:50:18;;;;;;;7.13;6.00;;;;;;;21.39;59.54;101409.28;21010178;28;20123;-76
2022/11/14 03:00:19;;;;;;;7.00;5.70;;;;;;;21.38;59.10;101405.78;20999512;28;20044;-76
2022/11/14 03:10:21;;;;;;;6.75;5.43;;;;;;;21.41;58.95;101404.72;20989072;28;20536;-76
2022/11/14 03:20:21;;;;;;;6.17;5.53;;;;;;;21.35;58.83;101405.97;21005702;28;20040;-76
2022/11/14 03:30:22;;;;;;;6.75;5.40;;;;;;;21.32;59.17;101400.06;21003168;28;20596;-77
2022/11/14 03:40:22;;;;;;;5.72;5.15;;;;;;;21.33;59.00;101399.94;21000059;28;20040;-76
2022/11/14 03:50:23;;;;;;;5.32;4.82;;;;;;;21.32;58.99;101395.63;20999654;28;20052;-76
2022/11/14 04:00:23;;;;;;;5.05;4.47;;;;;;;21.31;59.23;101391.28;21005276;28;20056;-77
2022/11/14 04:10:24;;;;;;;4.72;4.22;;;;;;;21.31;58.63;101382.53;21021514;28;20044;-77
2022/11/14 04:20:24;;;;;;;4.78;4.35;;;;;;;21.28;59.13;101380.94;21023478;28;20044;-76
2022/11/14 04:30:25;;;;;;;5.40;4.07;;;;;;;21.26;59.10;101365.25;21022664;28;20051;-76
2022/11/14 04:40:26;;;;;;;4.57;4.00;;;;;;;21.26;59.19;101362.63;21007967;28;20047;-76
2022/11/14 04:50:27;;;;;;;4.53;4.13;;;;;;;21.24;58.68;101361.84;21028242;28;20533;-77
2022/11/14 05:00:27;;;;;;;4.10;3.70;;;;;;;21.26;59.67;101357.34;21009916;27;20071;-77
2022/11/14 05:10:27;;;;;;;4.13;3.72;;;;;;;21.29;59.77;101348.41;20980027;28;20078;-77
2022/11/14 05:20:28;;;;;;;7.50;5.00;;;;;;;21.34;60.73;101343.69;21001395;28;20040;-76
2022/11/14 05:30:28;;;;;;;5.95;5.20;;;;;;;21.44;61.40;101351.84;21007523;28;20036;-79
2022/11/14 05:40:29;;;;;;;7.97;5.30;;;;;;;21.51;61.29;101344.41;20999756;28;20043;-85
2022/11/14 05:50:29;;;;;;;6.93;5.53;;;;;;;21.58;60.71;101346.59;21033633;27;20491;-79
2022/11/14 06:00:29;;;;;;;12.55;5.53;;;;;;;21.65;60.24;101351.47;21002027;28;20040;-75
2022/11/14 06:10:30;;;;;;;10.35;5.80;;;;;;;21.54;56.64;101352.94;20972900;28;20556;-76
2022/11/14 06:20:30;;;;;;;11.95;5.55;;;;;;;21.59;57.56;101361.47;20983505;28;20118;-81
2022/11/14 06:30:30;;;;;;;7.22;4.82;;;;;;;21.63;58.39;101366.53;20988228;28;20101;-75
2022/11/14 06:40:31;;;;;;;7.72;4.85;;;;;;;21.64;58.25;101374.34;20978872;28;20128;-76
2022/11/14 06:50:31;;;;;;;8.18;5.38;;;;;;;21.66;52.65;101374.25;20979789;28;20053;-78
2022/11/14 07:00:32;;;;;;;8.52;5.32;;;;;;;21.69;57.04;101368.75;21013001;28;20058;-79
2022/11/14 07:10:32;;;;;;;6.88;4.80;;;;;;;21.75;57.70;101371.88;20996331;28;20090;-78
2022/11/14 07:20:32;;;;;;;6.63;4.80;;;;;;;21.78;57.61;101377.91;20986220;28;20066;-79
2022/11/14 07:30:33;;;;;;;4.97;4.05;;;;;;;21.83;58.72;101367.91;21016029;28;20044;-79
2022/11/14 07:40:34;;;;;;;5.57;4.40;;;;;;;21.86;57.90;101372.94;21020702;28;20035;-78
2022/11/14 07:50:34;;;;;;;5.43;4.63;;;;;;;21.82;58.09;101374.94;21037520;28;20161;-78
2022/11/14 08:00:35;;;;;;;6.60;4.70;;;;;;;21.85;57.90;101363.34;21010108;28;20556;-77
2022/11/14 08:10:59;;;;;;;6.57;4.80;;;;;;;21.89;57.18;101364.84;21022102;28;20128;-78
2022/11/14 08:21:03;;;;;;;7.20;4.80;;;;;;;21.90;57.03;101351.56;20982169;28;20716;-78
2022/11/14 08:31:06;;;;;;;6.28;4.53;;;;;;;21.90;57.37;101333.09;21016511;28;20498;-79
2022/11/14 08:41:07;;;;;;;8.75;5.07;;;;;;;21.91;56.81;101328.69;21002854;28;20105;-79
2022/11/14 08:51:07;;;;;;;9.23;6.07;;;;;;;21.98;56.40;101337.03;21022550;28;20048;-78
2022/11/14 09:01:08;;;;;;;10.75;7.80;;;;;;;22.00;56.52;101338.63;20996828;28;20044;-78
2022/11/14 09:11:09;;;;;;;11.15;6.57;;;;;;;22.11;56.73;101337.09;21022514;28;20044;-80
2022/11/14 09:21:11;;;;;;;7.78;6.47;;;;;;;22.17;56.04;101331.41;21034769;28;20040;-81
2022/11/14 09:31:12;;;;;;;10.13;6.17;;;;;;;22.23;56.13;101315.16;21037287;28;20051;-80
2022/11/14 09:41:24;;;;;;;8.68;6.78;;;;;;;22.29;55.94;101317.38;21040701;28;20067;-80
2022/11/14 09:51:31;;;;;;;10.83;6.03;;;;;;;22.35;55.69;101308.19;21034766;28;20062;-82
2022/11/14 10:02:02;;;;;;;10.40;6.60;;;;;;;22.43;55.84;101295.34;21028424;28;20044;-78
2022/11/14 10:12:37;;;;;;;6.78;5.70;;;;;;;22.50;55.53;101279.94;21032165;28;20025;-78
2022/11/14 10:22:40;;;;;;;7.93;5.72;;;;;;;22.57;55.55;101256.59;21009045;28;20048;-78
2022/11/14 10:33:07;;;;;;;8.55;5.80;;;;;;;22.63;55.69;101237.69;21014302;28;20418;-79
2022/11/14 10:43:31;;;;;;;7.95;5.68;;;;;;;22.70;55.97;101236.31;20991663;28;20047;-76
2022/11/14 10:53:38;;;;;;;7.57;5.68;;;;;;;22.78;56.25;101214.66;20990559;28;20576;-76
2022/11/14 11:03:43;;;;;;;9.15;5.75;;;;;;;22.86;56.46;101192.03;20991023;28;20051;-79
2022/11/14 11:13:55;;;;;;;8.48;5.32;;;;;;;22.93;56.41;101181.84;21003117;28;20111;-77
2022/11/14 11:23:56;;;;;;;8.60;5.40;;;;;;;23.01;56.25;101179.50;20998424;28;20176;-78
2022/11/14 11:34:02;;;;;;;10.68;5.82;;;;;;;23.07;56.44;101167.66;21002805;28;20048;-77
2022/11/14 11:44:14;;;;;;;6.20;4.95;;;;;;;23.14;56.12;101160.13;20999770;28;20463;-78
2022/11/14 11:54:20;;;;;;;6.32;4.88;;;;;;;23.19;56.03;101155.34;21002839;28;20044;-77
2022/11/14 12:04:22;;;;;;;5.70;4.50;;;;;;;23.24;56.12;101139.16;21011574;28;20068;-76
2022/11/14 12:14:57;;;;;;;5.90;4.47;;;;;;;23.28;55.78;101120.34;21016595;28;20040;-75
2022/11/14 12:25:24;;;;;;;5.63;4.47;;;;;;;23.33;56.03;101101.50;21020392;28;20060;-78
2022/11/14 12:35:30;;;;;;;7.40;5.10;;;;;;;23.43;55.97;101091.06;21032306;28;20078;-77
2022/11/14 12:45:40;;;;;;;12.45;7.85;;;;;;;23.60;59.94;101077.41;21040637;27;20392;-76
2022/11/14 12:56:04;;;;;;;11.80;8.13;;;;;;;23.71;60.08;101070.47;21027260;28;20036;-76
2022/11/14 13:06:21;;;;;;;10.00;7.32;;;;;;;23.75;59.13;101070.06;21016815;27;20051;-76
2022/11/14 13:26:50;;;;;;;8.75;5.40;;;;;;;23.77;58.29;101059.41;21007678;28;20032;-76
2022/11/14 13:37:04;;;;;;;11.20;5.75;;;;;;;23.70;57.61;101048.44;21014844;27;20093;-75
2022/11/14 13:47:07;;;;;;;15.50;5.50;;;;;;;23.66;57.21;101039.06;20981898;28;20048;-75
2022/11/14 13:57:31;;;;;;;7.65;4.65;;;;;;;23.61;57.36;101033.31;21002232;28;20044;-74
2022/11/14 14:07:46;;;;;;;10.75;5.07;;;;;;;23.49;56.76;101021.88;21002306;28;20060;-75
2022/11/14 14:18:04;;;;;;;5.43;4.35;;;;;;;23.44;56.98;101021.41;20998352;28;20131;-74
2022/11/14 14:28:14;;;;;;;10.77;4.80;;;;;;;23.32;56.61;101013.44;20979437;28;20059;-76
2022/11/14 14:38:26;;;;;;;12.05;5.22;;;;;;;23.25;56.90;101012.22;20983769;28;20048;-81
2022/11/14 14:48:32;;;;;;;13.38;4.47;;;;;;;23.17;57.06;101012.81;21000189;28;20143;-76
2022/11/14 14:58:33;;;;;;;7.72;4.47;;;;;;;23.01;57.20;101004.34;21004971;28;20032;-83
2022/11/14 15:08:37;;;;;;;12.90;4.47;;;;;;;22.93;57.30;101004.09;21032585;27;20044;-86
2022/11/14 15:18:37;;;;;;;7.50;4.60;;;;;;;22.85;57.07;101002.00;21023174;28;20028;-85
2022/11/14 15:28:38;;;;;;;6.72;4.57;;;;;;;22.84;57.05;100987.13;20998076;28;20056;-76
2022/11/14 15:38:39;;;;;;;9.95;5.93;;;;;;;22.83;54.45;100996.84;20995945;28;20063;-75
2022/11/14 15:48:40;;;;;;;7.90;5.43;;;;;;;22.82;55.10;100979.31;20997108;28;20120;-74
2022/11/14 15:58:40;;;;;;;9.95;5.43;;;;;;;22.78;55.68;100995.53;20998751;28;20996;-72
2022/11/14 16:08:40;;;;;;;8.07;5.40;;;;;;;22.74;55.63;100989.63;21001376;28;20058;-79
2022/11/14 16:18:41;;;;;;;8.95;5.15;;;;;;;22.70;56.20;101002.22;21020989;28;20037;-79
2022/11/14 16:28:41;;;;;;;9.27;5.30;;;;;;;22.59;55.97;100993.41;21021624;28;20052;-78
2022/11/14 16:38:43;;;;;;;7.63;5.10;;;;;;;22.57;55.75;100996.16;20997229;28;20450;-78
2022/11/14 16:48:43;;;;;;;8.80;5.50;;;;;;;22.48;55.83;101002.09;21022148;28;20410;-79
2022/11/14 16:58:43;;;;;;;9.30;5.45;;;;;;;22.43;56.13;101002.44;21021540;28;20051;-79
2022/11/14 17:08:44;;;;;;;7.00;4.78;;;;;;;22.41;55.60;100998.22;21015860;28;20048;-79
2022/11/14 17:18:50;;;;;;;8.55;5.18;;;;;;;22.39;56.07;101011.53;21022992;28;20411;-79
2022/11/14 17:28:50;;;;;;;7.25;5.30;;;;;;;22.38;56.02;101002.75;21005232;28;20040;-79
2022/11/14 17:38:51;;;;;;;6.60;5.15;;;;;;;22.34;55.90;100989.91;21003989;28;20047;-79
2022/11/14 17:48:51;;;;;;;11.65;5.53;;;;;;;22.34;55.97;100987.25;20967640;28;20047;-79
2022/11/14 17:58:52;;;;;;;10.85;5.95;;;;;;;22.36;55.86;100983.56;20988814;28;20040;-80
2022/11/14 18:08:53;;;;;;;9.95;5.93;;;;;;;22.34;56.28;100977.53;20968006;28;20091;-77
2022/11/14 18:18:54;;;;;;;7.60;5.53;;;;;;;22.31;56.19;100982.19;20990270;28;20081;-77
2022/11/14 18:28:57;;;;;;;8.80;5.47;;;;;;;22.31;56.88;100971.63;20992030;27;20112;-79
2022/11/14 18:38:57;;;;;;;14.70;6.07;;;;;;;22.37;57.27;100971.19;21006120;28;20039;-81
2022/11/14 18:48:57;;;;;;;14.82;6.30;;;;;;;22.39;57.26;100971.97;21002011;28;20286;-81
2022/11/14 18:58:58;;;;;;;15.75;6.75;;;;;;;22.41;58.07;100966.56;20988565;28;20036;-81
2022/11/14 19:09:01;;;;;;;14.02;8.50;;;;;;;22.45;59.52;100970.66;20976203;28;20102;-81
2022/11/14 19:19:06;;;;;;;17.73;9.60;;;;;;;22.47;61.16;100948.50;20967100;28;20039;-82
2022/11/14 19:29:09;;;;;;;16.63;10.48;;;;;;;22.49;60.96;100953.66;20953138;28;20090;-80
2022/11/14 19:39:09;;;;;;;;;;;;;;;22.49;60.24;100954.47;20962493;28;20048;-81
2022/11/14 19:49:09;;;;;;;13.23;8.02;;;;;;;22.48;60.25;100962.50;20987798;28;19935;-84
2022/11/14 19:59:10;;;;;;;13.13;7.80;;;;;;;22.47;59.65;100952.91;20971690;28;20434;-79
2022/11/14 20:09:11;;;;;;;12.63;7.47;;;;;;;22.42;59.48;100950.59;20990042;28;20059;-78
2022/11/14 20:19:12;;;;;;;16.58;8.07;;;;;;;22.41;59.05;100942.81;20964015;28;20049;-79
2022/11/14 20:29:12;;;;;;;17.10;8.68;;;;;;;22.35;58.39;100929.09;20973760;28;20163;-78
2022/11/14 20:39:13;;;;;;;13.80;8.50;;;;;;;22.31;58.24;100921.50;20974295;28;20032;-79
2022/11/14 20:49:13;;;;;;;12.15;8.55;;;;;;;22.29;58.43;100934.81;21023928;28;20040;-78
2022/11/14 20:59:14;;;;;;;18.08;8.48;;;;;;;22.28;58.52;100930.50;21025239;28;20036;-78
2022/11/14 21:09:14;;;;;;;16.25;9.00;;;;;;;22.24;58.45;100918.50;21003607;28;20050;-78
2022/11/14 21:19:15;;;;;;;12.27;8.10;;;;;;;22.21;58.16;100908.16;21031929;28;20708;-77
2022/11/14 21:29:15;;;;;;;12.68;8.90;;;;;;;22.18;58.07;100901.31;21018138;28;20040;-77
2022/11/14 21:39:15;;;;;;;14.25;8.77;;;;;;;22.15;58.39;100892.78;21017403;28;20047;-78
2022/11/14 21:49:16;;;;;;;13.77;8.52;;;;;;;22.11;58.56;100888.69;20995842;28;20068;-78
2022/11/14 21:59:24;;;;;;;13.00;8.20;;;;;;;22.10;58.42;100881.75;21004743;28;20047;-78
2022/11/14 22:09:26;;;;;;;13.05;8.63;;;;;;;22.09;58.44;100872.13;20999969;28;20688;-78
2022/11/14 22:19:27;;;;;;;12.13;8.45;;;;;;;22.04;58.62;100862.75;21019965;28;20621;-78
2022/11/14 22:29:27;;;;;;;9.32;7.18;;;;;;;22.04;58.55;100862.75;20987528;28;20116;-77
2022/11/14 22:39:27;;;;;;;9.38;7.25;;;;;;;22.02;58.23;100840.09;21007422;28;20724;-77
2022/11/14 22:49:29;;;;;;;14.27;7.60;;;;;;;21.98;58.31;100836.84;20996685;28;20045;-77
2022/11/14 22:59:29;;;;;;;11.85;7.50;;;;;;;21.96;57.98;100830.00;21000770;28;20518;-76
2022/11/14 23:09:30;;;;;;;11.32;7.72;;;;;;;21.90;58.38;100823.41;20999346;28;20446;-77
2022/11/14 23:19:30;;;;;;;10.10;7.38;;;;;;;21.88;57.97;100812.13;21006355;28;20558;-77
2022/11/14 23:29:31;;;;;;;10.20;7.78;;;;;;;21.85;57.82;100807.06;21030171;28;20063;-76
2022/11/14 23:39:33;;;;;;;9.75;7.00;;;;;;;21.81;57.94;100800.34;21003006;28;20165;-76
2022/11/14 23:49:33;;;;;;;8.95;6.82;;;;;;;21.80;57.91;100801.28;20991774;28;20120;-76
2022/11/14 23:59:34;;;;;;;9.50;6.63;;;;;;;21.77;57.78;100788.34;20999976;28;20033;-76
